sensor_id;sensor_type;location;lat;lon;timestamp;P1;durP1;ratioP1;P2;durP2;ratioP2
47796;SDS011;33558;50.922;14.068;2023-09-19T07:43:07;6.22;;;2.90;;
47796;SDS011;33558;50.922;14.068;2023-09-19T07:49:20;3.42;;;1.90;;
47796;SDS011;33558;50.922;14.068;2023-09-19T07:51:49;4.20;;;1.80;;
47796;SDS011;33558;50.922;14.068;2023-09-19T07:54:22;2.58;;;1.70;;
47796;SDS011;33558;50.922;14.068;2023-09-19T07:56:52;2.78;;;1.50;;
47796;SDS011;33558;50.922;14.068;2023-09-19T08:02:04;2.40;;;1.20;;
47796;SDS011;33558;50.922;14.068;2023-09-19T08:04:34;1.30;;;1.08;;
47796;SDS011;33558;50.922;14.068;2023-09-19T08:07:02;2.83;;;1.30;;
47796;SDS011;33558;50.922;14.068;2023-09-19T08:15:42;3.88;;;1.67;;
47796;SDS011;33558;50.922;14.068;2023-09-19T08:18:12;3.08;;;1.17;;
47796;SDS011;33558;50.922;14.068;2023-09-19T08:23:31;1.85;;;1.00;;
47796;SDS011;33558;50.922;14.068;2023-09-19T08:25:58;2.35;;;1.20;;
47796;SDS011;33558;50.922;14.068;2023-09-19T08:28:28;3.20;;;1.00;;
47796;SDS011;33558;50.922;14.068;2023-09-19T08:31:00;2.40;;;1.05;;
47796;SDS011;33558;50.922;14.068;2023-09-19T08:33:30;3.25;;;1.17;;
47796;SDS011;33558;50.922;14.068;2023-09-19T08:35:59;3.03;;;1.00;;
47796;SDS011;33558;50.922;14.068;2023-09-19T08:38:26;1.27;;;0.75;;
47796;SDS011;33558;50.922;14.068;2023-09-19T08:40:57;2.03;;;0.98;;
47796;SDS011;33558;50.922;14.068;2023-09-19T08:43:25;2.33;;;1.10;;
47796;SDS011;33558;50.922;14.068;2023-09-19T08:45:54;3.28;;;1.20;;
47796;SDS011;33558;50.922;14.068;2023-09-19T08:48:26;2.40;;;1.27;;
47796;SDS011;33558;50.922;14.068;2023-09-19T08:50:56;2.17;;;1.20;;
47796;SDS011;33558;50.922;14.068;2023-09-19T08:53:31;2.85;;;1.20;;
47796;SDS011;33558;50.922;14.068;2023-09-19T08:56:04;1.30;;;0.95;;
47796;SDS011;33558;50.922;14.068;2023-09-19T08:58:38;3.50;;;1.27;;
47796;SDS011;33558;50.922;14.068;2023-09-19T09:01:10;2.17;;;1.23;;
47796;SDS011;33558;50.922;14.068;2023-09-19T09:03:40;2.63;;;1.05;;
47796;SDS011;33558;50.922;14.068;2023-09-19T09:06:14;3.65;;;1.10;;
47796;SDS011;33558;50.922;14.068;2023-09-19T09:08:43;1.52;;;1.02;;
47796;SDS011;33558;50.922;14.068;2023-09-19T09:11:10;1.70;;;1.20;;
47796;SDS011;33558;50.922;14.068;2023-09-19T09:13:38;2.88;;;1.48;;
47796;SDS011;33558;50.922;14.068;2023-09-19T09:16:06;2.28;;;1.23;;
47796;SDS011;33558;50.922;14.068;2023-09-19T09:18:35;2.63;;;1.20;;
47796;SDS011;33558;50.922;14.068;2023-09-19T09:21:03;2.88;;;1.40;;
47796;SDS011;33558;50.922;14.068;2023-09-19T09:23:32;2.95;;;1.20;;
47796;SDS011;33558;50.922;14.068;2023-09-19T09:26:01;2.55;;;1.35;;
47796;SDS011;33558;50.922;14.068;2023-09-19T09:28:33;3.92;;;1.13;;
47796;SDS011;33558;50.922;14.068;2023-09-19T09:31:04;1.92;;;1.08;;
47796;SDS011;33558;50.922;14.068;2023-09-19T09:33:43;1.50;;;1.27;;
47796;SDS011;33558;50.922;14.068;2023-09-19T09:36:19;4.50;;;1.30;;
47796;SDS011;33558;50.922;14.068;2023-09-19T09:43:04;2.70;;;1.63;;
47796;SDS011;33558;50.922;14.068;2023-09-19T09:46:14;3.22;;;1.23;;
47796;SDS011;33558;50.922;14.068;2023-09-19T09:49:02;2.55;;;1.27;;
47796;SDS011;33558;50.922;14.068;2023-09-19T09:52:12;2.70;;;0.93;;
47796;SDS011;33558;50.922;14.068;2023-09-19T09:55:00;3.53;;;0.98;;
47796;SDS011;33558;50.922;14.068;2023-09-19T09:57:30;1.58;;;1.10;;
47796;SDS011;33558;50.922;14.068;2023-09-19T09:59:58;2.65;;;1.00;;
47796;SDS011;33558;50.922;14.068;2023-09-19T10:02:41;2.40;;;1.38;;
47796;SDS011;33558;50.922;14.068;2023-09-19T10:05:12;2.20;;;1.15;;
47796;SDS011;33558;50.922;14.068;2023-09-19T10:07:46;2.60;;;0.80;;
47796;SDS011;33558;50.922;14.068;2023-09-19T10:14:06;2.08;;;0.95;;
47796;SDS011;33558;50.922;14.068;2023-09-19T10:16:35;3.10;;;1.13;;
47796;SDS011;33558;50.922;14.068;2023-09-19T10:19:03;4.18;;;1.00;;
47796;SDS011;33558;50.922;14.068;2023-09-19T10:21:31;1.85;;;0.93;;
47796;SDS011;33558;50.922;14.068;2023-09-19T10:23:58;1.42;;;0.85;;
47796;SDS011;33558;50.922;14.068;2023-09-19T10:26:27;1.98;;;0.98;;
47796;SDS011;33558;50.922;14.068;2023-09-19T10:28:56;2.83;;;0.93;;
47796;SDS011;33558;50.922;14.068;2023-09-19T10:31:26;1.90;;;0.95;;
47796;SDS011;33558;50.922;14.068;2023-09-19T10:33:54;1.77;;;1.10;;
47796;SDS011;33558;50.922;14.068;2023-09-19T10:36:22;1.70;;;1.00;;
47796;SDS011;33558;50.922;14.068;2023-09-19T10:38:51;1.70;;;1.00;;
47796;SDS011;33558;50.922;14.068;2023-09-19T10:41:20;1.65;;;0.90;;
47796;SDS011;33558;50.922;14.068;2023-09-19T10:43:48;3.75;;;1.00;;
47796;SDS011;33558;50.922;14.068;2023-09-19T10:46:15;2.90;;;1.00;;
47796;SDS011;33558;50.922;14.068;2023-09-19T10:48:43;2.53;;;0.70;;
47796;SDS011;33558;50.922;14.068;2023-09-19T10:51:15;3.55;;;1.00;;
47796;SDS011;33558;50.922;14.068;2023-09-19T10:53:45;2.63;;;1.02;;
47796;SDS011;33558;50.922;14.068;2023-09-19T10:56:15;3.35;;;1.10;;
47796;SDS011;33558;50.922;14.068;2023-09-19T10:58:45;1.58;;;0.75;;
47796;SDS011;33558;50.922;14.068;2023-09-19T11:01:12;2.13;;;0.70;;
47796;SDS011;33558;50.922;14.068;2023-09-19T11:03:40;2.72;;;0.90;;
47796;SDS011;33558;50.922;14.068;2023-09-19T11:06:11;1.20;;;0.73;;
47796;SDS011;33558;50.922;14.068;2023-09-19T11:08:57;3.80;;;1.02;;
47796;SDS011;33558;50.922;14.068;2023-09-19T11:11:45;3.75;;;0.82;;
47796;SDS011;33558;50.922;14.068;2023-09-19T11:14:28;1.73;;;0.82;;
47796;SDS011;33558;50.922;14.068;2023-09-19T11:25:48;2.80;;;0.70;;
47796;SDS011;33558;50.922;14.068;2023-09-19T11:34:45;2.67;;;0.90;;
47796;SDS011;33558;50.922;14.068;2023-09-19T11:40:46;2.28;;;0.90;;
47796;SDS011;33558;50.922;14.068;2023-09-19T11:43:32;2.90;;;0.93;;
47796;SDS011;33558;50.922;14.068;2023-09-19T11:46:04;3.08;;;1.17;;
47796;SDS011;33558;50.922;14.068;2023-09-19T11:48:31;2.10;;;0.80;;
47796;SDS011;33558;50.922;14.068;2023-09-19T11:51:00;3.00;;;0.90;;
47796;SDS011;33558;50.922;14.068;2023-09-19T11:53:32;2.05;;;0.90;;
47796;SDS011;33558;50.922;14.068;2023-09-19T11:56:04;3.42;;;0.80;;
47796;SDS011;33558;50.922;14.068;2023-09-19T11:58:35;3.45;;;1.10;;
47796;SDS011;33558;50.922;14.068;2023-09-19T12:01:03;2.05;;;1.25;;
47796;SDS011;33558;50.922;14.068;2023-09-19T12:03:33;1.50;;;1.00;;
47796;SDS011;33558;50.922;14.068;2023-09-19T12:06:10;1.45;;;0.93;;
47796;SDS011;33558;50.922;14.068;2023-09-19T12:08:39;2.40;;;1.15;;
47796;SDS011;33558;50.922;14.068;2023-09-19T12:11:11;2.40;;;0.95;;
47796;SDS011;33558;50.922;14.068;2023-09-19T12:13:40;3.10;;;1.10;;
47796;SDS011;33558;50.922;14.068;2023-09-19T12:16:11;3.78;;;1.10;;
47796;SDS011;33558;50.922;14.068;2023-09-19T12:18:40;1.48;;;0.88;;
47796;SDS011;33558;50.922;14.068;2023-09-19T12:21:08;2.72;;;1.00;;
47796;SDS011;33558;50.922;14.068;2023-09-19T12:23:37;2.33;;;1.00;;
47796;SDS011;33558;50.922;14.068;2023-09-19T12:26:06;4.05;;;0.85;;
47796;SDS011;33558;50.922;14.068;2023-09-19T12:28:41;2.30;;;1.15;;
47796;SDS011;33558;50.922;14.068;2023-09-19T12:31:08;2.05;;;0.90;;
47796;SDS011;33558;50.922;14.068;2023-09-19T12:33:37;2.10;;;1.02;;
47796;SDS011;33558;50.922;14.068;2023-09-19T12:36:18;2.05;;;1.15;;
47796;SDS011;33558;50.922;14.068;2023-09-19T12:38:50;3.40;;;1.20;;
47796;SDS011;33558;50.922;14.068;2023-09-19T12:41:18;1.55;;;0.98;;
47796;SDS011;33558;50.922;14.068;2023-09-19T12:43:47;2.97;;;0.90;;
47796;SDS011;33558;50.922;14.068;2023-09-19T12:46:14;2.05;;;1.17;;
47796;SDS011;33558;50.922;14.068;2023-09-19T12:48:44;2.05;;;1.20;;
47796;SDS011;33558;50.922;14.068;2023-09-19T12:51:13;2.15;;;1.13;;
47796;SDS011;33558;50.922;14.068;2023-09-19T12:53:42;1.60;;;0.90;;
47796;SDS011;33558;50.922;14.068;2023-09-19T12:56:11;2.17;;;1.13;;
47796;SDS011;33558;50.922;14.068;2023-09-19T12:58:50;1.85;;;0.93;;
47796;SDS011;33558;50.922;14.068;2023-09-19T13:01:19;2.28;;;1.10;;
47796;SDS011;33558;50.922;14.068;2023-09-19T13:06:44;2.03;;;1.10;;
47796;SDS011;33558;50.922;14.068;2023-09-19T13:09:14;3.58;;;1.17;;
47796;SDS011;33558;50.922;14.068;2023-09-19T13:11:41;2.30;;;1.40;;
47796;SDS011;33558;50.922;14.068;2023-09-19T13:14:14;1.90;;;1.25;;
47796;SDS011;33558;50.922;14.068;2023-09-19T13:16:57;2.22;;;1.25;;
47796;SDS011;33558;50.922;14.068;2023-09-19T13:19:38;2.85;;;1.58;;
47796;SDS011;33558;50.922;14.068;2023-09-19T13:25:03;3.05;;;1.30;;
47796;SDS011;33558;50.922;14.068;2023-09-19T13:27:31;3.30;;;1.40;;
47796;SDS011;33558;50.922;14.068;2023-09-19T13:29:59;3.78;;;1.10;;
47796;SDS011;33558;50.922;14.068;2023-09-19T13:32:26;1.85;;;1.30;;
47796;SDS011;33558;50.922;14.068;2023-09-19T13:34:53;3.20;;;1.30;;
47796;SDS011;33558;50.922;14.068;2023-09-19T13:37:20;3.22;;;1.40;;
47796;SDS011;33558;50.922;14.068;2023-09-19T13:39:47;3.30;;;1.73;;
47796;SDS011;33558;50.922;14.068;2023-09-19T13:42:14;6.13;;;1.30;;
47796;SDS011;33558;50.922;14.068;2023-09-19T13:44:41;1.88;;;1.17;;
47796;SDS011;33558;50.922;14.068;2023-09-19T13:47:10;2.20;;;1.20;;
47796;SDS011;33558;50.922;14.068;2023-09-19T13:49:38;2.17;;;1.10;;
47796;SDS011;33558;50.922;14.068;2023-09-19T13:52:05;1.70;;;1.00;;
47796;SDS011;33558;50.922;14.068;2023-09-19T13:54:32;1.92;;;1.08;;
47796;SDS011;33558;50.922;14.068;2023-09-19T13:57:00;2.08;;;1.13;;
47796;SDS011;33558;50.922;14.068;2023-09-19T13:59:27;1.60;;;0.95;;
47796;SDS011;33558;50.922;14.068;2023-09-19T14:01:54;2.33;;;1.38;;
47796;SDS011;33558;50.922;14.068;2023-09-19T14:04:23;2.90;;;1.52;;
47796;SDS011;33558;50.922;14.068;2023-09-19T14:06:50;2.20;;;1.33;;
47796;SDS011;33558;50.922;14.068;2023-09-19T14:09:17;2.00;;;1.10;;
47796;SDS011;33558;50.922;14.068;2023-09-19T14:11:44;2.20;;;1.40;;
47796;SDS011;33558;50.922;14.068;2023-09-19T14:14:12;2.38;;;1.50;;
47796;SDS011;33558;50.922;14.068;2023-09-19T14:16:39;2.47;;;1.67;;
47796;SDS011;33558;50.922;14.068;2023-09-19T14:19:07;1.83;;;1.10;;
47796;SDS011;33558;50.922;14.068;2023-09-19T14:21:35;3.08;;;1.45;;
47796;SDS011;33558;50.922;14.068;2023-09-19T14:24:04;3.92;;;1.33;;
47796;SDS011;33558;50.922;14.068;2023-09-19T14:26:34;2.85;;;1.50;;
47796;SDS011;33558;50.922;14.068;2023-09-19T14:29:01;2.40;;;1.40;;
47796;SDS011;33558;50.922;14.068;2023-09-19T14:31:27;2.53;;;1.40;;
47796;SDS011;33558;50.922;14.068;2023-09-19T14:33:55;2.28;;;1.40;;
47796;SDS011;33558;50.922;14.068;2023-09-19T14:36:22;2.05;;;1.25;;
47796;SDS011;33558;50.922;14.068;2023-09-19T14:38:53;2.78;;;1.27;;
47796;SDS011;33558;50.922;14.068;2023-09-19T14:41:23;2.50;;;1.30;;
47796;SDS011;33558;50.922;14.068;2023-09-19T14:43:50;2.05;;;1.23;;
47796;SDS011;33558;50.922;14.068;2023-09-19T14:46:17;3.88;;;1.17;;
47796;SDS011;33558;50.922;14.068;2023-09-19T14:48:44;1.92;;;1.25;;
47796;SDS011;33558;50.922;14.068;2023-09-19T14:51:12;2.20;;;1.10;;
47796;SDS011;33558;50.922;14.068;2023-09-19T14:53:39;2.60;;;1.40;;
47796;SDS011;33558;50.922;14.068;2023-09-19T14:56:08;2.53;;;1.70;;
47796;SDS011;33558;50.922;14.068;2023-09-19T14:58:36;1.65;;;1.40;;
47796;SDS011;33558;50.922;14.068;2023-09-19T15:01:04;3.17;;;1.33;;
47796;SDS011;33558;50.922;14.068;2023-09-19T15:03:32;2.67;;;1.60;;
47796;SDS011;33558;50.922;14.068;2023-09-19T15:06:00;1.58;;;1.10;;
47796;SDS011;33558;50.922;14.068;2023-09-19T15:08:27;2.25;;;1.63;;
47796;SDS011;33558;50.922;14.068;2023-09-19T15:10:53;3.35;;;1.85;;
47796;SDS011;33558;50.922;14.068;2023-09-19T15:13:22;3.10;;;1.58;;
47796;SDS011;33558;50.922;14.068;2023-09-19T15:15:54;4.03;;;1.55;;
47796;SDS011;33558;50.922;14.068;2023-09-19T15:18:25;2.65;;;1.88;;
47796;SDS011;33558;50.922;14.068;2023-09-19T15:20:51;2.55;;;1.50;;
47796;SDS011;33558;50.922;14.068;2023-09-19T15:23:19;3.17;;;1.40;;
47796;SDS011;33558;50.922;14.068;2023-09-19T15:25:47;3.70;;;1.45;;
47796;SDS011;33558;50.922;14.068;2023-09-19T15:28:14;3.60;;;1.60;;
47796;SDS011;33558;50.922;14.068;2023-09-19T15:30:42;1.67;;;1.27;;
47796;SDS011;33558;50.922;14.068;2023-09-19T15:33:09;3.47;;;1.67;;
47796;SDS011;33558;50.922;14.068;2023-09-19T15:35:36;2.75;;;1.30;;
47796;SDS011;33558;50.922;14.068;2023-09-19T15:38:03;2.85;;;1.38;;
47796;SDS011;33558;50.922;14.068;2023-09-19T15:40:30;3.10;;;1.63;;
47796;SDS011;33558;50.922;14.068;2023-09-19T15:42:57;3.10;;;1.27;;
47796;SDS011;33558;50.922;14.068;2023-09-19T15:45:24;2.20;;;1.38;;
47796;SDS011;33558;50.922;14.068;2023-09-19T15:47:53;2.92;;;1.77;;
47796;SDS011;33558;50.922;14.068;2023-09-19T15:50:19;20.08;;;2.28;;
47796;SDS011;33558;50.922;14.068;2023-09-19T15:52:46;2.83;;;1.42;;
47796;SDS011;33558;50.922;14.068;2023-09-19T15:55:19;3.05;;;1.50;;
47796;SDS011;33558;50.922;14.068;2023-09-19T15:57:46;1.98;;;1.27;;
47796;SDS011;33558;50.922;14.068;2023-09-19T16:00:13;2.47;;;1.60;;
47796;SDS011;33558;50.922;14.068;2023-09-19T16:02:42;2.28;;;1.40;;
47796;SDS011;33558;50.922;14.068;2023-09-19T16:05:10;3.45;;;1.58;;
47796;SDS011;33558;50.922;14.068;2023-09-19T16:07:37;3.10;;;1.52;;
47796;SDS011;33558;50.922;14.068;2023-09-19T16:10:04;1.80;;;1.30;;
47796;SDS011;33558;50.922;14.068;2023-09-19T16:12:33;2.80;;;1.77;;
47796;SDS011;33558;50.922;14.068;2023-09-19T16:15:00;2.47;;;1.30;;
47796;SDS011;33558;50.922;14.068;2023-09-19T16:17:27;2.53;;;1.50;;
47796;SDS011;33558;50.922;14.068;2023-09-19T16:19:54;3.17;;;1.95;;
47796;SDS011;33558;50.922;14.068;2023-09-19T16:22:22;2.00;;;1.48;;
47796;SDS011;33558;50.922;14.068;2023-09-19T16:24:49;3.15;;;1.85;;
47796;SDS011;33558;50.922;14.068;2023-09-19T16:27:15;2.25;;;1.67;;
47796;SDS011;33558;50.922;14.068;2023-09-19T16:29:46;3.45;;;1.60;;
47796;SDS011;33558;50.922;14.068;2023-09-19T16:32:13;3.08;;;1.80;;
47796;SDS011;33558;50.922;14.068;2023-09-19T16:34:40;5.38;;;1.80;;
47796;SDS011;33558;50.922;14.068;2023-09-19T16:37:07;2.25;;;1.50;;
47796;SDS011;33558;50.922;14.068;2023-09-19T16:39:35;2.72;;;1.35;;
47796;SDS011;33558;50.922;14.068;2023-09-19T16:42:02;2.70;;;1.52;;
47796;SDS011;33558;50.922;14.068;2023-09-19T16:44:29;2.75;;;1.30;;
47796;SDS011;33558;50.922;14.068;2023-09-19T16:46:55;3.80;;;1.60;;
47796;SDS011;33558;50.922;14.068;2023-09-19T16:49:22;2.45;;;1.75;;
47796;SDS011;33558;50.922;14.068;2023-09-19T16:51:50;2.70;;;1.50;;
47796;SDS011;33558;50.922;14.068;2023-09-19T16:54:16;4.32;;;1.55;;
47796;SDS011;33558;50.922;14.068;2023-09-19T16:56:45;2.80;;;1.45;;
47796;SDS011;33558;50.922;14.068;2023-09-19T16:59:11;2.80;;;1.58;;
47796;SDS011;33558;50.922;14.068;2023-09-19T17:01:39;2.65;;;1.50;;
47796;SDS011;33558;50.922;14.068;2023-09-19T17:04:06;3.55;;;1.50;;
47796;SDS011;33558;50.922;14.068;2023-09-19T17:06:33;3.20;;;1.63;;
47796;SDS011;33558;50.922;14.068;2023-09-19T17:09:01;3.42;;;1.58;;
47796;SDS011;33558;50.922;14.068;2023-09-19T17:11:29;3.75;;;1.40;;
47796;SDS011;33558;50.922;14.068;2023-09-19T17:13:57;6.35;;;1.80;;
47796;SDS011;33558;50.922;14.068;2023-09-19T17:16:24;2.45;;;1.42;;
47796;SDS011;33558;50.922;14.068;2023-09-19T17:18:54;7.00;;;2.03;;
47796;SDS011;33558;50.922;14.068;2023-09-19T17:21:22;2.03;;;1.30;;
47796;SDS011;33558;50.922;14.068;2023-09-19T17:23:50;4.97;;;1.70;;
47796;SDS011;33558;50.922;14.068;2023-09-19T17:26:18;2.35;;;1.50;;
47796;SDS011;33558;50.922;14.068;2023-09-19T17:28:46;3.65;;;2.33;;
47796;SDS011;33558;50.922;14.068;2023-09-19T17:31:15;2.25;;;1.55;;
47796;SDS011;33558;50.922;14.068;2023-09-19T17:33:44;4.60;;;1.80;;
47796;SDS011;33558;50.922;14.068;2023-09-19T17:36:13;5.05;;;1.77;;
47796;SDS011;33558;50.922;14.068;2023-09-19T17:38:40;2.85;;;1.60;;
47796;SDS011;33558;50.922;14.068;2023-09-19T17:41:08;4.18;;;1.60;;
47796;SDS011;33558;50.922;14.068;2023-09-19T17:43:35;3.13;;;1.65;;
47796;SDS011;33558;50.922;14.068;2023-09-19T17:46:07;2.70;;;1.80;;
47796;SDS011;33558;50.922;14.068;2023-09-19T17:48:37;2.92;;;1.70;;
47796;SDS011;33558;50.922;14.068;2023-09-19T17:51:06;3.85;;;2.10;;
47796;SDS011;33558;50.922;14.068;2023-09-19T17:53:34;3.95;;;1.90;;
47796;SDS011;33558;50.922;14.068;2023-09-19T17:56:02;4.47;;;2.28;;
47796;SDS011;33558;50.922;14.068;2023-09-19T17:58:28;2.97;;;2.05;;
47796;SDS011;33558;50.922;14.068;2023-09-19T18:00:56;3.55;;;1.95;;
47796;SDS011;33558;50.922;14.068;2023-09-19T18:03:23;3.95;;;2.20;;
47796;SDS011;33558;50.922;14.068;2023-09-19T18:05:52;2.65;;;1.70;;
47796;SDS011;33558;50.922;14.068;2023-09-19T18:08:19;2.60;;;1.67;;
47796;SDS011;33558;50.922;14.068;2023-09-19T18:10:47;4.43;;;2.08;;
47796;SDS011;33558;50.922;14.068;2023-09-19T18:13:14;3.00;;;1.90;;
47796;SDS011;33558;50.922;14.068;2023-09-19T18:15:41;3.95;;;2.00;;
47796;SDS011;33558;50.922;14.068;2023-09-19T18:18:07;3.92;;;2.20;;
47796;SDS011;33558;50.922;14.068;2023-09-19T18:20:37;3.95;;;1.92;;
47796;SDS011;33558;50.922;14.068;2023-09-19T18:23:06;9.07;;;2.13;;
47796;SDS011;33558;50.922;14.068;2023-09-19T18:25:33;3.13;;;2.05;;
47796;SDS011;33558;50.922;14.068;2023-09-19T18:28:00;4.03;;;2.10;;
47796;SDS011;33558;50.922;14.068;2023-09-19T18:30:29;4.10;;;2.42;;
47796;SDS011;33558;50.922;14.068;2023-09-19T18:32:56;3.10;;;1.98;;
47796;SDS011;33558;50.922;14.068;2023-09-19T18:35:23;3.97;;;2.47;;
47796;SDS011;33558;50.922;14.068;2023-09-19T18:37:49;6.68;;;2.15;;
47796;SDS011;33558;50.922;14.068;2023-09-19T18:40:21;3.38;;;2.17;;
47796;SDS011;33558;50.922;14.068;2023-09-19T18:42:48;4.07;;;2.55;;
47796;SDS011;33558;50.922;14.068;2023-09-19T18:45:17;7.35;;;2.67;;
47796;SDS011;33558;50.922;14.068;2023-09-19T18:47:44;4.93;;;2.75;;
47796;SDS011;33558;50.922;14.068;2023-09-19T18:50:10;4.82;;;2.55;;
47796;SDS011;33558;50.922;14.068;2023-09-19T18:52:37;5.53;;;2.58;;
47796;SDS011;33558;50.922;14.068;2023-09-19T18:55:05;3.17;;;2.25;;
47796;SDS011;33558;50.922;14.068;2023-09-19T18:57:35;3.78;;;2.30;;
47796;SDS011;33558;50.922;14.068;2023-09-19T19:00:03;6.43;;;2.88;;
47796;SDS011;33558;50.922;14.068;2023-09-19T19:02:31;4.50;;;2.63;;
47796;SDS011;33558;50.922;14.068;2023-09-19T19:04:57;5.93;;;2.63;;
47796;SDS011;33558;50.922;14.068;2023-09-19T19:07:24;6.82;;;2.83;;
47796;SDS011;33558;50.922;14.068;2023-09-19T19:09:51;5.13;;;2.65;;
47796;SDS011;33558;50.922;14.068;2023-09-19T19:12:18;5.25;;;3.00;;
47796;SDS011;33558;50.922;14.068;2023-09-19T19:14:46;4.85;;;2.75;;
47796;SDS011;33558;50.922;14.068;2023-09-19T19:17:13;4.15;;;2.20;;
47796;SDS011;33558;50.922;14.068;2023-09-19T19:19:41;3.00;;;2.63;;
47796;SDS011;33558;50.922;14.068;2023-09-19T19:22:07;3.45;;;2.65;;
47796;SDS011;33558;50.922;14.068;2023-09-19T19:24:34;4.72;;;2.35;;
47796;SDS011;33558;50.922;14.068;2023-09-19T19:27:01;3.65;;;2.50;;
47796;SDS011;33558;50.922;14.068;2023-09-19T19:29:27;3.35;;;2.10;;
47796;SDS011;33558;50.922;14.068;2023-09-19T19:31:55;8.13;;;2.83;;
47796;SDS011;33558;50.922;14.068;2023-09-19T19:34:22;6.82;;;2.58;;
47796;SDS011;33558;50.922;14.068;2023-09-19T19:36:50;5.15;;;2.38;;
47796;SDS011;33558;50.922;14.068;2023-09-19T19:39:16;3.63;;;2.47;;
47796;SDS011;33558;50.922;14.068;2023-09-19T19:41:43;3.85;;;2.83;;
47796;SDS011;33558;50.922;14.068;2023-09-19T19:44:10;5.47;;;2.90;;
47796;SDS011;33558;50.922;14.068;2023-09-19T19:46:37;4.20;;;2.67;;
47796;SDS011;33558;50.922;14.068;2023-09-19T19:49:05;3.80;;;2.70;;
47796;SDS011;33558;50.922;14.068;2023-09-19T19:51:35;4.00;;;2.67;;
47796;SDS011;33558;50.922;14.068;2023-09-19T19:54:04;3.92;;;2.80;;
47796;SDS011;33558;50.922;14.068;2023-09-19T19:56:33;4.78;;;2.50;;
47796;SDS011;33558;50.922;14.068;2023-09-19T19:59:00;5.15;;;2.47;;
47796;SDS011;33558;50.922;14.068;2023-09-19T20:01:28;6.28;;;2.40;;
47796;SDS011;33558;50.922;14.068;2023-09-19T20:03:56;4.85;;;2.60;;
47796;SDS011;33558;50.922;14.068;2023-09-19T20:06:24;3.63;;;2.80;;
47796;SDS011;33558;50.922;14.068;2023-09-19T20:08:51;8.50;;;2.60;;
47796;SDS011;33558;50.922;14.068;2023-09-19T20:11:18;4.03;;;2.83;;
47796;SDS011;33558;50.922;14.068;2023-09-19T20:13:45;4.90;;;2.70;;
47796;SDS011;33558;50.922;14.068;2023-09-19T20:16:12;7.57;;;3.03;;
47796;SDS011;33558;50.922;14.068;2023-09-19T20:18:39;7.30;;;3.35;;
47796;SDS011;33558;50.922;14.068;2023-09-19T20:21:06;5.30;;;3.08;;
47796;SDS011;33558;50.922;14.068;2023-09-19T20:23:37;4.60;;;2.55;;
47796;SDS011;33558;50.922;14.068;2023-09-19T20:26:03;4.57;;;2.75;;
47796;SDS011;33558;50.922;14.068;2023-09-19T20:28:31;4.38;;;2.83;;
47796;SDS011;33558;50.922;14.068;2023-09-19T20:30:58;5.03;;;3.10;;
47796;SDS011;33558;50.922;14.068;2023-09-19T20:33:25;3.50;;;2.40;;
47796;SDS011;33558;50.922;14.068;2023-09-19T20:35:56;4.90;;;3.05;;
47796;SDS011;33558;50.922;14.068;2023-09-19T20:38:23;6.10;;;3.08;;
47796;SDS011;33558;50.922;14.068;2023-09-19T20:40:51;5.28;;;3.22;;
47796;SDS011;33558;50.922;14.068;2023-09-19T20:43:18;6.55;;;3.20;;
47796;SDS011;33558;50.922;14.068;2023-09-19T20:45:45;4.63;;;2.85;;
47796;SDS011;33558;50.922;14.068;2023-09-19T20:48:11;7.95;;;3.03;;
47796;SDS011;33558;50.922;14.068;2023-09-19T20:50:40;6.43;;;3.08;;
47796;SDS011;33558;50.922;14.068;2023-09-19T20:53:07;4.10;;;2.83;;
47796;SDS011;33558;50.922;14.068;2023-09-19T20:55:35;5.95;;;3.00;;
47796;SDS011;33558;50.922;14.068;2023-09-19T20:58:04;5.22;;;3.25;;
47796;SDS011;33558;50.922;14.068;2023-09-19T21:00:31;5.35;;;3.05;;
47796;SDS011;33558;50.922;14.068;2023-09-19T21:02:58;8.23;;;3.15;;
47796;SDS011;33558;50.922;14.068;2023-09-19T21:05:25;3.85;;;2.50;;
47796;SDS011;33558;50.922;14.068;2023-09-19T21:07:53;4.32;;;2.88;;
47796;SDS011;33558;50.922;14.068;2023-09-19T21:10:20;8.25;;;3.10;;
47796;SDS011;33558;50.922;14.068;2023-09-19T21:12:46;3.78;;;3.10;;
47796;SDS011;33558;50.922;14.068;2023-09-19T21:15:15;4.50;;;3.33;;
47796;SDS011;33558;50.922;14.068;2023-09-19T21:17:43;3.22;;;2.72;;
47796;SDS011;33558;50.922;14.068;2023-09-19T21:20:11;6.20;;;3.60;;
47796;SDS011;33558;50.922;14.068;2023-09-19T21:22:39;6.97;;;2.95;;
47796;SDS011;33558;50.922;14.068;2023-09-19T21:25:06;4.82;;;2.90;;
47796;SDS011;33558;50.922;14.068;2023-09-19T21:27:34;10.55;;;2.92;;
47796;SDS011;33558;50.922;14.068;2023-09-19T21:30:01;5.13;;;3.40;;
47796;SDS011;33558;50.922;14.068;2023-09-19T21:32:29;10.10;;;3.40;;
47796;SDS011;33558;50.922;14.068;2023-09-19T21:34:56;6.05;;;3.92;;
47796;SDS011;33558;50.922;14.068;2023-09-19T21:37:25;5.78;;;2.85;;
47796;SDS011;33558;50.922;14.068;2023-09-19T21:39:52;3.75;;;2.85;;
47796;SDS011;33558;50.922;14.068;2023-09-19T21:42:19;5.07;;;3.33;;
47796;SDS011;33558;50.922;14.068;2023-09-19T21:44:46;5.38;;;3.03;;
47796;SDS011;33558;50.922;14.068;2023-09-19T21:47:12;6.82;;;3.00;;
47796;SDS011;33558;50.922;14.068;2023-09-19T21:49:41;6.57;;;2.80;;
47796;SDS011;33558;50.922;14.068;2023-09-19T21:52:07;4.82;;;3.35;;
47796;SDS011;33558;50.922;14.068;2023-09-19T21:54:34;5.78;;;2.80;;
47796;SDS011;33558;50.922;14.068;2023-09-19T21:57:01;5.32;;;2.80;;
47796;SDS011;33558;50.922;14.068;2023-09-19T21:59:28;5.40;;;2.92;;
47796;SDS011;33558;50.922;14.068;2023-09-19T22:01:55;5.93;;;3.10;;
47796;SDS011;33558;50.922;14.068;2023-09-19T22:04:22;4.57;;;2.90;;
47796;SDS011;33558;50.922;14.068;2023-09-19T22:06:50;5.68;;;3.30;;
47796;SDS011;33558;50.922;14.068;2023-09-19T22:09:16;3.58;;;3.00;;
47796;SDS011;33558;50.922;14.068;2023-09-19T22:11:44;5.53;;;3.40;;
47796;SDS011;33558;50.922;14.068;2023-09-19T22:14:11;5.22;;;3.10;;
47796;SDS011;33558;50.922;14.068;2023-09-19T22:16:38;5.75;;;3.40;;
47796;SDS011;33558;50.922;14.068;2023-09-19T22:19:04;6.93;;;3.15;;
47796;SDS011;33558;50.922;14.068;2023-09-19T22:21:31;5.65;;;3.08;;
47796;SDS011;33558;50.922;14.068;2023-09-19T22:24:04;3.65;;;3.03;;
47796;SDS011;33558;50.922;14.068;2023-09-19T22:26:32;4.47;;;3.13;;
47796;SDS011;33558;50.922;14.068;2023-09-19T22:29:03;5.40;;;2.83;;
47796;SDS011;33558;50.922;14.068;2023-09-19T22:31:30;4.60;;;2.60;;
47796;SDS011;33558;50.922;14.068;2023-09-19T22:34:01;4.97;;;2.85;;
47796;SDS011;33558;50.922;14.068;2023-09-19T22:36:31;4.00;;;2.50;;
47796;SDS011;33558;50.922;14.068;2023-09-19T22:39:05;4.50;;;2.83;;
47796;SDS011;33558;50.922;14.068;2023-09-19T22:41:38;5.07;;;2.67;;
47796;SDS011;33558;50.922;14.068;2023-09-19T22:44:05;5.40;;;2.65;;
47796;SDS011;33558;50.922;14.068;2023-09-19T22:46:33;5.32;;;2.70;;
47796;SDS011;33558;50.922;14.068;2023-09-19T22:49:01;4.70;;;2.88;;
47796;SDS011;33558;50.922;14.068;2023-09-19T22:51:29;3.25;;;2.65;;
47796;SDS011;33558;50.922;14.068;2023-09-19T22:54:05;3.95;;;3.00;;
47796;SDS011;33558;50.922;14.068;2023-09-19T22:56:36;5.97;;;2.95;;
47796;SDS011;33558;50.922;14.068;2023-09-19T22:59:02;5.68;;;3.28;;
47796;SDS011;33558;50.922;14.068;2023-09-19T23:01:29;6.00;;;2.90;;
47796;SDS011;33558;50.922;14.068;2023-09-19T23:04:01;5.70;;;2.88;;
47796;SDS011;33558;50.922;14.068;2023-09-19T23:06:39;6.85;;;2.92;;
47796;SDS011;33558;50.922;14.068;2023-09-19T23:09:09;6.50;;;3.22;;
47796;SDS011;33558;50.922;14.068;2023-09-19T23:11:46;6.13;;;2.97;;
47796;SDS011;33558;50.922;14.068;2023-09-19T23:14:14;7.25;;;3.10;;